sensor_id;sensor_type;location;lat;lon;timestamp;pressure;altitude;pressure_sealevel;temperature;humidity
57056;BME280;42945;51.718;5.324;2023-05-23T00:05:40;101888.22;;;12.98;100.00
57056;BME280;42945;51.718;5.324;2023-05-23T00:11:29;101795.06;;;12.46;100.00
57056;BME280;42945;51.718;5.324;2023-05-23T00:17:18;101723.22;;;12.46;100.00
57056;BME280;42945;51.718;5.324;2023-05-23T00:23:10;101715.34;;;12.45;100.00
57056;BME280;42945;51.718;5.324;2023-05-23T00:29:00;101736.06;;;12.38;100.00
57056;BME280;42945;51.718;5.324;2023-05-23T00:34:47;101660.28;;;11.75;100.00
57056;BME280;42945;51.718;5.324;2023-05-23T00:40:35;101760.06;;;12.19;100.00
57056;BME280;42945;51.718;5.324;2023-05-23T00:46:23;101733.00;;;12.11;100.00
57056;BME280;42945;51.718;5.324;2023-05-23T00:52:11;101636.78;;;11.49;100.00
57056;BME280;42945;51.718;5.324;2023-05-23T00:58:00;101770.47;;;12.06;100.00
57056;BME280;42945;51.718;5.324;2023-05-23T01:03:49;101756.59;;;11.99;100.00
57056;BME280;42945;51.718;5.324;2023-05-23T01:09:36;101790.34;;;11.97;100.00
57056;BME280;42945;51.718;5.324;2023-05-23T01:15:34;101778.28;;;11.90;100.00
57056;BME280;42945;51.718;5.324;2023-05-23T01:21:23;102133.94;;;11.82;100.00
57056;BME280;42945;51.718;5.324;2023-05-23T01:27:45;101773.41;;;11.81;100.00
57056;BME280;42945;51.718;5.324;2023-05-23T01:33:34;101891.84;;;12.44;100.00
57056;BME280;42945;51.718;5.324;2023-05-23T01:39:23;101645.38;;;10.98;100.00
57056;BME280;42945;51.718;5.324;2023-05-23T01:49:01;101793.22;;;11.74;100.00
57056;BME280;42945;51.718;5.324;2023-05-23T01:54:51;101819.81;;;11.74;100.00
57056;BME280;42945;51.718;5.324;2023-05-23T02:00:40;101908.06;;;12.39;100.00
57056;BME280;42945;51.718;5.324;2023-05-23T02:06:27;101837.91;;;11.85;100.00
57056;BME280;42945;51.718;5.324;2023-05-23T02:12:14;101693.50;;;11.10;100.00
57056;BME280;42945;51.718;5.324;2023-05-23T02:18:03;101968.47;;;12.73;100.00
57056;BME280;42945;51.718;5.324;2023-05-23T02:23:52;101856.59;;;11.83;100.00
57056;BME280;42945;51.718;5.324;2023-05-23T02:29:40;101710.91;;;11.17;100.00
57056;BME280;42945;51.718;5.324;2023-05-23T02:35:27;101822.97;;;11.82;100.00
57056;BME280;42945;51.718;5.324;2023-05-23T02:41:15;101834.72;;;11.76;100.00
57056;BME280;42945;51.718;5.324;2023-05-23T02:47:03;101801.06;;;11.77;100.00
57056;BME280;42945;51.718;5.324;2023-05-23T02:52:51;101723.16;;;11.19;100.00
57056;BME280;42945;51.718;5.324;2023-05-23T02:58:38;101831.16;;;11.77;100.00
57056;BME280;42945;51.718;5.324;2023-05-23T03:04:26;101837.97;;;11.83;100.00
57056;BME280;42945;51.718;5.324;2023-05-23T03:10:14;101770.75;;;11.81;100.00
57056;BME280;42945;51.718;5.324;2023-05-23T03:16:02;101809.97;;;11.76;100.00
57056;BME280;42945;51.718;5.324;2023-05-23T03:21:51;101738.28;;;11.17;100.00
57056;BME280;42945;51.718;5.324;2023-05-23T03:27:38;101832.06;;;11.76;100.00
57056;BME280;42945;51.718;5.324;2023-05-23T03:33:26;101806.59;;;11.72;100.00
57056;BME280;42945;51.718;5.324;2023-05-23T03:39:14;101813.56;;;11.75;100.00
57056;BME280;42945;51.718;5.324;2023-05-23T03:45:02;101850.06;;;11.90;100.00
57056;BME280;42945;51.718;5.324;2023-05-23T03:50:50;101801.44;;;11.69;100.00
57056;BME280;42945;51.718;5.324;2023-05-23T03:56:38;101820.28;;;11.82;100.00
57056;BME280;42945;51.718;5.324;2023-05-23T04:02:26;101854.34;;;11.74;100.00
57056;BME280;42945;51.718;5.324;2023-05-23T04:08:14;101817.00;;;11.77;100.00
57056;BME280;42945;51.718;5.324;2023-05-23T04:14:03;101854.28;;;11.75;100.00
57056;BME280;42945;51.718;5.324;2023-05-23T04:19:51;101842.28;;;11.67;100.00
57056;BME280;42945;51.718;5.324;2023-05-23T04:25:38;101979.03;;;12.19;100.00
57056;BME280;42945;51.718;5.324;2023-05-23T04:31:26;101826.84;;;11.56;100.00
57056;BME280;42945;51.718;5.324;2023-05-23T04:37:14;101861.78;;;11.47;100.00
57056;BME280;42945;51.718;5.324;2023-05-23T04:43:04;101836.44;;;11.39;100.00
57056;BME280;42945;51.718;5.324;2023-05-23T04:52:40;101867.13;;;11.26;100.00
57056;BME280;42945;51.718;5.324;2023-05-23T04:58:28;101883.03;;;11.26;100.00
57056;BME280;42945;51.718;5.324;2023-05-23T05:04:18;101891.22;;;11.42;100.00
57056;BME280;42945;51.718;5.324;2023-05-23T05:10:06;102018.88;;;12.00;100.00
57056;BME280;42945;51.718;5.324;2023-05-23T05:15:56;101892.34;;;11.36;100.00
57056;BME280;42945;51.718;5.324;2023-05-23T05:21:43;101897.66;;;11.36;100.00
57056;BME280;42945;51.718;5.324;2023-05-23T05:27:31;101885.84;;;11.23;100.00
57056;BME280;42945;51.718;5.324;2023-05-23T05:33:19;102141.63;;;11.68;100.00
57056;BME280;42945;51.718;5.324;2023-05-23T05:39:11;102038.97;;;11.45;100.00
57056;BME280;42945;51.718;5.324;2023-05-23T05:45:01;101867.91;;;10.87;100.00
57056;BME280;42945;51.718;5.324;2023-05-23T05:54:49;101830.53;;;10.07;100.00
57056;BME280;42945;51.718;5.324;2023-05-23T06:00:37;101924.53;;;10.88;100.00
57056;BME280;42945;51.718;5.324;2023-05-23T06:06:28;101939.69;;;10.62;100.00
57056;BME280;42945;51.718;5.324;2023-05-23T06:12:16;101834.63;;;10.14;100.00
57056;BME280;42945;51.718;5.324;2023-05-23T06:18:04;101719.03;;;9.21;100.00
57056;BME280;42945;51.718;5.324;2023-05-23T06:23:52;101955.50;;;10.65;100.00
57056;BME280;42945;51.718;5.324;2023-05-23T06:29:40;101914.84;;;10.64;100.00
57056;BME280;42945;51.718;5.324;2023-05-23T06:35:29;101831.31;;;10.09;100.00
57056;BME280;42945;51.718;5.324;2023-05-23T06:41:18;101907.81;;;10.63;100.00
57056;BME280;42945;51.718;5.324;2023-05-23T06:47:06;101951.41;;;11.00;100.00
57056;BME280;42945;51.718;5.324;2023-05-23T06:56:51;102020.94;;;11.94;100.00
57056;BME280;42945;51.718;5.324;2023-05-23T07:02:38;101981.13;;;11.72;100.00
57056;BME280;42945;51.718;5.324;2023-05-23T07:08:26;101840.88;;;10.99;100.00
57056;BME280;42945;51.718;5.324;2023-05-23T07:14:15;102076.44;;;12.41;100.00
57056;BME280;42945;51.718;5.324;2023-05-23T07:20:03;102050.28;;;12.11;100.00
57056;BME280;42945;51.718;5.324;2023-05-23T07:25:51;102011.69;;;11.61;100.00
57056;BME280;42945;51.718;5.324;2023-05-23T07:31:40;102115.66;;;11.96;100.00
57056;BME280;42945;51.718;5.324;2023-05-23T07:37:27;101877.28;;;10.96;100.00
57056;BME280;42945;51.718;5.324;2023-05-23T07:43:15;101875.25;;;10.60;100.00
57056;BME280;42945;51.718;5.324;2023-05-23T07:49:04;102010.44;;;11.50;100.00
57056;BME280;42945;51.718;5.324;2023-05-23T07:54:51;101996.41;;;11.46;100.00
57056;BME280;42945;51.718;5.324;2023-05-23T08:00:39;101988.25;;;11.30;100.00
57056;BME280;42945;51.718;5.324;2023-05-23T08:06:28;101991.94;;;11.47;100.00
57056;BME280;42945;51.718;5.324;2023-05-23T08:12:15;102021.63;;;11.36;100.00
57056;BME280;42945;51.718;5.324;2023-05-23T08:18:04;102043.66;;;11.38;100.00
57056;BME280;42945;51.718;5.324;2023-05-23T08:23:53;101886.72;;;10.60;100.00
57056;BME280;42945;51.718;5.324;2023-05-23T08:29:42;102045.75;;;11.52;100.00
57056;BME280;42945;51.718;5.324;2023-05-23T08:35:30;101856.50;;;10.64;100.00
57056;BME280;42945;51.718;5.324;2023-05-23T08:41:23;102059.06;;;12.13;100.00
57056;BME280;42945;51.718;5.324;2023-05-23T08:47:15;101923.81;;;11.85;100.00
57056;BME280;42945;51.718;5.324;2023-05-23T08:53:04;101902.97;;;11.96;100.00
57056;BME280;42945;51.718;5.324;2023-05-23T08:58:57;102037.31;;;12.81;100.00
57056;BME280;42945;51.718;5.324;2023-05-23T09:04:45;102001.78;;;12.82;100.00
57056;BME280;42945;51.718;5.324;2023-05-23T09:10:35;102018.41;;;13.76;100.00
57056;BME280;42945;51.718;5.324;2023-05-23T09:16:31;101962.28;;;13.27;100.00
57056;BME280;42945;51.718;5.324;2023-05-23T09:22:24;102067.13;;;14.13;100.00
57056;BME280;42945;51.718;5.324;2023-05-23T09:28:13;101901.25;;;13.05;100.00
57056;BME280;42945;51.718;5.324;2023-05-23T09:34:03;131731.94;;;191.27;100.00
57056;BME280;42945;51.718;5.324;2023-05-23T09:39:51;101922.47;;;13.06;100.00
57056;BME280;42945;51.718;5.324;2023-05-23T09:45:40;101999.44;;;13.65;100.00
57056;BME280;42945;51.718;5.324;2023-05-23T09:51:28;101995.78;;;13.50;100.00
57056;BME280;42945;51.718;5.324;2023-05-23T10:01:06;101941.09;;;13.24;100.00
57056;BME280;42945;51.718;5.324;2023-05-23T10:07:02;102156.53;;;14.55;100.00
57056;BME280;42945;51.718;5.324;2023-05-23T10:12:54;101990.97;;;13.74;100.00
57056;BME280;42945;51.718;5.324;2023-05-23T10:18:44;101986.16;;;14.14;100.00
57056;BME280;42945;51.718;5.324;2023-05-23T10:24:35;102087.44;;;14.33;100.00
57056;BME280;42945;51.718;5.324;2023-05-23T10:30:27;101922.56;;;14.06;100.00
57056;BME280;42945;51.718;5.324;2023-05-23T10:36:26;102015.66;;;15.08;100.00
57056;BME280;42945;51.718;5.324;2023-05-23T10:42:40;102004.28;;;14.88;100.00
57056;BME280;42945;51.718;5.324;2023-05-23T10:48:33;102207.50;;;15.01;100.00
57056;BME280;42945;51.718;5.324;2023-05-23T10:54:23;102026.38;;;14.60;100.00
57056;BME280;42945;51.718;5.324;2023-05-23T11:04:11;101995.06;;;16.13;100.00
57056;BME280;42945;51.718;5.324;2023-05-23T11:10:18;102059.53;;;15.50;100.00
57056;BME280;42945;51.718;5.324;2023-05-23T11:16:31;102073.19;;;15.45;100.00
57056;BME280;42945;51.718;5.324;2023-05-23T11:22:19;102054.09;;;15.51;100.00
57056;BME280;42945;51.718;5.324;2023-05-23T11:28:10;102222.66;;;16.57;100.00
57056;BME280;42945;51.718;5.324;2023-05-23T11:33:59;102011.97;;;15.10;100.00
57056;BME280;42945;51.718;5.324;2023-05-23T11:39:48;102031.19;;;15.62;0.00
57056;BME280;42945;51.718;5.324;2023-05-23T11:45:38;102143.81;;;16.32;98.02
57056;BME280;42945;51.718;5.324;2023-05-23T11:51:28;102031.50;;;16.16;98.25
57056;BME280;42945;51.718;5.324;2023-05-23T11:57:15;101943.66;;;15.35;97.89
57056;BME280;42945;51.718;5.324;2023-05-23T12:07:05;101908.00;;;15.65;95.49
57056;BME280;42945;51.718;5.324;2023-05-23T12:12:53;102020.09;;;15.84;93.35
57056;BME280;42945;51.718;5.324;2023-05-23T12:18:42;102072.94;;;15.64;93.48
57056;BME280;42945;51.718;5.324;2023-05-23T12:24:30;101957.06;;;15.05;98.88
57056;BME280;42945;51.718;5.324;2023-05-23T12:30:19;102072.69;;;15.69;93.21
57056;BME280;42945;51.718;5.324;2023-05-23T12:36:08;102093.66;;;15.14;89.45
57056;BME280;42945;51.718;5.324;2023-05-23T12:42:09;102097.28;;;16.34;81.49
57056;BME280;42945;51.718;5.324;2023-05-23T12:47:57;102072.84;;;16.82;72.63
57056;BME280;42945;51.718;5.324;2023-05-23T12:53:46;102028.22;;;16.11;84.56
57056;BME280;42945;51.718;5.324;2023-05-23T12:59:35;102128.00;;;15.68;86.03
57056;BME280;42945;51.718;5.324;2023-05-23T13:09:24;101972.53;;;14.84;97.61
57056;BME280;42945;51.718;5.324;2023-05-23T13:15:13;102045.94;;;15.69;90.73
57056;BME280;42945;51.718;5.324;2023-05-23T13:21:01;102082.13;;;15.44;96.52
57056;BME280;42945;51.718;5.324;2023-05-23T13:26:49;102060.81;;;14.81;89.06
57056;BME280;42945;51.718;5.324;2023-05-23T13:32:37;102093.75;;;14.81;78.86
57056;BME280;42945;51.718;5.324;2023-05-23T13:38:26;102009.16;;;14.82;79.99
57056;BME280;42945;51.718;5.324;2023-05-23T13:44:15;101946.06;;;14.15;80.39
57056;BME280;42945;51.718;5.324;2023-05-23T13:50:04;102076.69;;;16.06;75.41
57056;BME280;42945;51.718;5.324;2023-05-23T13:55:52;102133.78;;;16.36;82.73
57056;BME280;42945;51.718;5.324;2023-05-23T14:01:40;102069.00;;;15.55;94.85
57056;BME280;42945;51.718;5.324;2023-05-23T14:11:21;102105.28;;;15.13;91.93
57056;BME280;42945;51.718;5.324;2023-05-23T14:17:15;102073.31;;;15.88;73.79
57056;BME280;42945;51.718;5.324;2023-05-23T14:23:04;102067.78;;;16.78;65.03
57056;BME280;42945;51.718;5.324;2023-05-23T14:28:52;102049.72;;;15.81;71.71
57056;BME280;42945;51.718;5.324;2023-05-23T14:35:07;101922.91;;;15.10;77.20
57056;BME280;42945;51.718;5.324;2023-05-23T14:40:55;102163.28;;;15.59;81.00
57056;BME280;42945;51.718;5.324;2023-05-23T14:46:46;102021.72;;;15.56;78.06
57056;BME280;42945;51.718;5.324;2023-05-23T14:52:37;101930.69;;;15.88;71.17
57056;BME280;42945;51.718;5.324;2023-05-23T14:58:24;101909.03;;;15.48;73.30
57056;BME280;42945;51.718;5.324;2023-05-23T15:04:12;102076.09;;;15.87;73.04
57056;BME280;42945;51.718;5.324;2023-05-23T15:14:01;102040.25;;;15.29;74.46
57056;BME280;42945;51.718;5.324;2023-05-23T15:19:53;102038.28;;;15.63;79.67
57056;BME280;42945;51.718;5.324;2023-05-23T15:25:41;101968.78;;;15.91;66.04
57056;BME280;42945;51.718;5.324;2023-05-23T15:31:29;102036.72;;;16.61;59.37
57056;BME280;42945;51.718;5.324;2023-05-23T15:37:17;102038.75;;;16.43;57.83
57056;BME280;42945;51.718;5.324;2023-05-23T15:43:04;102069.53;;;15.46;69.44
57056;BME280;42945;51.718;5.324;2023-05-23T15:48:51;101966.88;;;15.04;73.51
57056;BME280;42945;51.718;5.324;2023-05-23T15:54:40;102069.16;;;16.42;64.66
57056;BME280;42945;51.718;5.324;2023-05-23T16:00:28;102097.75;;;16.41;67.89
57056;BME280;42945;51.718;5.324;2023-05-23T16:06:17;116439.00;;;100.87;63.81
57056;BME280;42945;51.718;5.324;2023-05-23T16:16:02;101991.72;;;16.24;61.77
57056;BME280;42945;51.718;5.324;2023-05-23T16:21:50;101946.50;;;14.87;67.80
57056;BME280;42945;51.718;5.324;2023-05-23T16:27:37;102095.00;;;15.22;74.37
57056;BME280;42945;51.718;5.324;2023-05-23T16:33:26;102319.78;;;15.33;73.13
57056;BME280;42945;51.718;5.324;2023-05-23T16:39:15;102120.50;;;16.63;62.43
57056;BME280;42945;51.718;5.324;2023-05-23T16:45:03;102107.34;;;16.01;58.61
57056;BME280;42945;51.718;5.324;2023-05-23T16:50:53;101988.13;;;15.52;56.37
57056;BME280;42945;51.718;5.324;2023-05-23T16:56:42;102103.97;;;16.85;55.01
57056;BME280;42945;51.718;5.324;2023-05-23T17:02:30;102102.78;;;17.03;55.27
57056;BME280;42945;51.718;5.324;2023-05-23T17:08:18;102087.91;;;16.27;55.66
57056;BME280;42945;51.718;5.324;2023-05-23T17:18:01;102078.72;;;16.31;61.29
57056;BME280;42945;51.718;5.324;2023-05-23T17:23:49;101993.84;;;15.90;56.61
57056;BME280;42945;51.718;5.324;2023-05-23T17:29:37;101955.28;;;16.63;52.66
57056;BME280;42945;51.718;5.324;2023-05-23T17:35:28;102092.09;;;16.89;53.73
57056;BME280;42945;51.718;5.324;2023-05-23T17:41:16;102098.50;;;17.28;50.84
57056;BME280;42945;51.718;5.324;2023-05-23T17:47:04;102093.13;;;18.08;50.08
57056;BME280;42945;51.718;5.324;2023-05-23T17:52:52;102096.13;;;17.63;49.20
57056;BME280;42945;51.718;5.324;2023-05-23T17:58:40;102040.75;;;15.66;54.56
57056;BME280;42945;51.718;5.324;2023-05-23T18:04:28;102122.69;;;16.13;60.73
57056;BME280;42945;51.718;5.324;2023-05-23T18:10:17;102007.84;;;14.89;60.75
57056;BME280;42945;51.718;5.324;2023-05-23T18:19:53;102111.78;;;16.59;55.36
57056;BME280;42945;51.718;5.324;2023-05-23T18:25:40;102104.22;;;16.51;58.31
57056;BME280;42945;51.718;5.324;2023-05-23T18:31:29;102003.31;;;13.05;70.37
57056;BME280;42945;51.718;5.324;2023-05-23T18:37:17;102102.81;;;13.22;85.49
57056;BME280;42945;51.718;5.324;2023-05-23T18:43:06;102143.25;;;12.93;87.99
57056;BME280;42945;51.718;5.324;2023-05-23T18:48:54;102239.63;;;12.81;94.45
57056;BME280;42945;51.718;5.324;2023-05-23T18:54:44;102240.41;;;12.64;100.00
57056;BME280;42945;51.718;5.324;2023-05-23T19:00:32;102153.34;;;11.84;100.00
57056;BME280;42945;51.718;5.324;2023-05-23T19:06:20;102166.53;;;11.21;100.00
57056;BME280;42945;51.718;5.324;2023-05-23T19:12:08;102115.13;;;11.00;100.00
57056;BME280;42945;51.718;5.324;2023-05-23T19:14:35;102235.75;;;11.62;100.00
57056;BME280;42945;51.718;5.324;2023-05-23T19:20:23;102297.13;;;11.32;100.00
57056;BME280;42945;51.718;5.324;2023-05-23T19:26:11;102030.13;;;9.83;100.00
57056;BME280;42945;51.718;5.324;2023-05-23T19:31:59;102204.03;;;10.39;100.00
57056;BME280;42945;51.718;5.324;2023-05-23T19:37:48;102058.44;;;9.56;100.00
57056;BME280;42945;51.718;5.324;2023-05-23T19:43:35;102227.91;;;10.13;100.00
57056;BME280;42945;51.718;5.324;2023-05-23T19:49:23;102206.31;;;9.98;100.00
57056;BME280;42945;51.718;5.324;2023-05-23T19:55:11;101933.53;;;8.35;100.00
57056;BME280;42945;51.718;5.324;2023-05-23T20:00:59;102128.56;;;8.88;100.00
57056;BME280;42945;51.718;5.324;2023-05-23T20:06:47;102214.78;;;9.53;100.00
57056;BME280;42945;51.718;5.324;2023-05-23T20:12:36;102229.06;;;9.49;100.00
57056;BME280;42945;51.718;5.324;2023-05-23T20:22:19;102190.38;;;9.15;100.00
57056;BME280;42945;51.718;5.324;2023-05-23T20:28:07;102283.00;;;9.15;100.00
57056;BME280;42945;51.718;5.324;2023-05-23T20:33:55;102223.66;;;8.93;100.00
57056;BME280;42945;51.718;5.324;2023-05-23T20:39:44;102190.91;;;8.97;100.00
57056;BME280;42945;51.718;5.324;2023-05-23T20:45:35;102326.66;;;9.32;100.00
57056;BME280;42945;51.718;5.324;2023-05-23T20:51:22;102190.78;;;8.70;100.00
57056;BME280;42945;51.718;5.324;2023-05-23T20:57:10;102165.66;;;8.55;100.00
57056;BME280;42945;51.718;5.324;2023-05-23T21:02:58;102126.69;;;7.95;100.00
57056;BME280;42945;51.718;5.324;2023-05-23T21:08:46;102222.88;;;8.58;100.00
57056;BME280;42945;51.718;5.324;2023-05-23T21:14:35;102268.50;;;8.64;100.00
57056;BME280;42945;51.718;5.324;2023-05-23T21:23:57;102150.97;;;7.75;100.00
57056;BME280;42945;51.718;5.324;2023-05-23T21:29:46;102316.34;;;8.90;100.00
57056;BME280;42945;51.718;5.324;2023-05-23T21:35:34;102270.22;;;8.31;100.00
57056;BME280;42945;51.718;5.324;2023-05-23T21:41:24;102206.59;;;8.04;100.00
57056;BME280;42945;51.718;5.324;2023-05-23T21:47:14;102214.66;;;7.98;100.00
57056;BME280;42945;51.718;5.324;2023-05-23T21:53:03;102265.94;;;7.91;100.00
57056;BME280;42945;51.718;5.324;2023-05-23T21:58:51;102265.97;;;7.89;100.00
57056;BME280;42945;51.718;5.324;2023-05-23T22:04:40;102226.22;;;7.57;100.00
57056;BME280;42945;51.718;5.324;2023-05-23T22:10:27;102249.03;;;7.59;100.00
57056;BME280;42945;51.718;5.324;2023-05-23T22:16:14;102229.81;;;7.54;100.00
57056;BME280;42945;51.718;5.324;2023-05-23T22:25:49;102002.84;;;5.98;100.00
57056;BME280;42945;51.718;5.324;2023-05-23T22:31:37;102269.78;;;7.37;100.00
57056;BME280;42945;51.718;5.324;2023-05-23T22:37:25;102249.13;;;7.16;100.00
57056;BME280;42945;51.718;5.324;2023-05-23T22:43:13;102163.22;;;6.59;100.00
57056;BME280;42945;51.718;5.324;2023-05-23T22:49:00;102165.84;;;6.59;100.00
57056;BME280;42945;51.718;5.324;2023-05-23T22:54:50;102277.25;;;7.15;100.00
57056;BME280;42945;51.718;5.324;2023-05-23T23:00:38;102192.31;;;6.98;100.00
57056;BME280;42945;51.718;5.324;2023-05-23T23:06:26;102268.94;;;6.92;100.00
57056;BME280;42945;51.718;5.324;2023-05-23T23:12:16;102261.00;;;6.92;100.00
57056;BME280;42945;51.718;5.324;2023-05-23T23:18:03;102240.19;;;6.78;100.00
57056;BME280;42945;51.718;5.324;2023-05-23T23:23:51;102263.94;;;6.78;100.00
57056;BME280;42945;51.718;5.324;2023-05-23T23:29:40;102159.72;;;6.11;100.00
57056;BME280;42945;51.718;5.324;2023-05-23T23:35:27;102330.72;;;6.78;100.00
57056;BME280;42945;51.718;5.324;2023-05-23T23:41:15;102294.06;;;6.63;100.00
57056;BME280;42945;51.718;5.324;2023-05-23T23:47:04;102304.44;;;6.72;100.00
57056;BME280;42945;51.718;5.324;2023-05-23T23:52:52;102256.28;;;6.64;100.00
57056;BME280;42945;51.718;5.324;2023-05-23T23:58:43;102175.09;;;5.83;100.00
